Main page
METAR-TAF:

METAR-TAF

Airports :

Bamako–Modibo Keïta International Airport

Bamako, Mali

latitude: 12-32N, longitude: 007-57W, elevation: 380 m

Current weather observation

The report was made 20 minutes ago, at 06:30 UTC
Wind 2 kt from the East/Southeast
Temperature 23°C
Humidity 100%
Pressure 1014 hPa
Visibility 10 km or more
no clouds below 1500 m and no cumulonimbus

METAR: GABS 260630Z 11002KT CAVOK 23/23 Q1014 NOSIG

Time: 06:50 (06:50 UTC)

Forecast

The report was made 1 hour and 50 minutes ago, at 05:00 UTC
Forecast valid from 26 at 06 UTC to 27 at 12 UTC
Wind 8 kt from the South
Visibility 10 km or more
Few clouds at a height of 2000 ft
Temporary
from 26 at 16 UTC to 26 at 23 UTC
Wind 20 kt from the East with gusts up to 40 kt
Visibility: 2000 m
Broken clouds at a height of 2000 ft
Scattered clouds at a height of 3000 ft, Cumulonimbus.
thunderstorm, rain, Blowing dust

TAF: GABS 260500Z 2606/2712 17008KT 9999 FEW020 TEMPO 2616/2623 08020G40KT 2000 TSRA BLDU BKN020 SCT030CB

Weather observations and forecasts of more than 4000 airports (METAR and TAF reports).

The available stations are represented by yellow and red dots on the map.

Hover mouse over dot to see the name of the station.

Then click to see weather observations and forecasts.

To change the map : click on the green buttons with a black cross to zoom in, on the green button with a dash to zoom out, or on the green arrows for adjacent maps.


METAR-TAF: